createdAt,value
2022-09-18T00:01:19.690Z,10.60
2022-09-18T00:03:49.819Z,10.60
2022-09-18T00:06:22.784Z,10.60
2022-09-18T00:08:54.303Z,10.60
2022-09-18T00:11:23.979Z,10.60
2022-09-18T00:13:51.158Z,10.60
2022-09-18T00:16:20.516Z,10.50
2022-09-18T00:18:48.314Z,10.50
2022-09-18T00:21:16.734Z,10.50
2022-09-18T00:23:44.321Z,10.50
2022-09-18T00:26:12.805Z,10.50
2022-09-18T00:28:39.933Z,10.50
2022-09-18T00:31:09.522Z,10.50
2022-09-18T00:33:37.637Z,10.50
2022-09-18T00:36:06.157Z,10.50
2022-09-18T00:38:33.691Z,10.40
2022-09-18T00:41:02.485Z,10.40
2022-09-18T00:43:35.007Z,10.40
2022-09-18T00:46:09.469Z,10.40
2022-09-18T00:48:57.476Z,10.40
2022-09-18T00:51:28.187Z,10.40
2022-09-18T00:54:07.066Z,10.30
2022-09-18T00:56:36.833Z,10.30
2022-09-18T00:59:07.096Z,10.30
2022-09-18T01:01:34.150Z,10.30
2022-09-18T01:04:01.066Z,10.30
2022-09-18T01:06:44.085Z,10.30
2022-09-18T01:09:28.878Z,10.30
2022-09-18T01:12:10.658Z,10.30
2022-09-18T01:15:26.298Z,10.30
2022-09-18T01:18:46.920Z,10.20
2022-09-18T01:21:17.384Z,10.20
2022-09-18T01:23:49.712Z,10.20
2022-09-18T01:26:56.954Z,10.10
2022-09-18T01:29:50.042Z,10.10
2022-09-18T01:32:32.497Z,10.10
2022-09-18T01:35:47.981Z,10.10
2022-09-18T01:38:33.086Z,10.10
2022-09-18T01:41:08.992Z,10.00
2022-09-18T01:43:38.289Z,10.00
2022-09-18T01:46:11.620Z,10.00
2022-09-18T01:48:50.588Z,9.90
2022-09-18T01:51:25.674Z,10.00
2022-09-18T01:53:58.230Z,10.00
2022-09-18T01:56:38.883Z,10.00
2022-09-18T01:59:13.085Z,10.00
2022-09-18T02:01:54.005Z,10.00
2022-09-18T02:04:27.514Z,10.00
2022-09-18T02:07:00.653Z,10.00
2022-09-18T02:09:28.487Z,10.00
2022-09-18T02:11:58.747Z,10.00
2022-09-18T02:14:30.067Z,10.10
2022-09-18T02:17:27.277Z,10.00
2022-09-18T02:20:01.644Z,10.10
2022-09-18T02:22:32.367Z,10.10
2022-09-18T02:25:03.824Z,10.10
2022-09-18T02:27:32.906Z,10.10
2022-09-18T02:30:02.425Z,10.10
2022-09-18T02:32:30.093Z,10.10
2022-09-18T02:34:57.104Z,10.10
2022-09-18T02:37:37.735Z,10.10
2022-09-18T02:40:25.390Z,10.10
2022-09-18T02:43:26.985Z,10.20
2022-09-18T02:46:18.594Z,10.20
2022-09-18T02:49:04.266Z,10.20
2022-09-18T02:51:55.013Z,10.20
2022-09-18T02:54:54.673Z,10.20
2022-09-18T02:57:58.881Z,10.20
2022-09-18T03:00:28.733Z,10.10
2022-09-18T03:02:59.836Z,10.10
2022-09-18T03:05:39.038Z,10.10
2022-09-18T03:08:05.805Z,10.00
2022-09-18T03:10:32.628Z,10.00
2022-09-18T03:12:59.989Z,10.00
2022-09-18T03:15:26.998Z,10.00
2022-09-18T03:17:53.673Z,10.00
2022-09-18T03:20:20.555Z,10.00
2022-09-18T03:22:49.602Z,10.00
2022-09-18T03:25:17.215Z,9.90
2022-09-18T03:27:43.981Z,9.90
2022-09-18T03:30:16.450Z,9.90
2022-09-18T03:32:43.202Z,9.90
2022-09-18T03:35:10.782Z,9.90
2022-09-18T03:37:38.354Z,9.80
2022-09-18T03:40:08.351Z,9.80
2022-09-18T03:42:35.358Z,9.80
2022-09-18T03:45:02.193Z,9.80
2022-09-18T03:47:31.890Z,9.80
2022-09-18T03:50:02.697Z,9.80
2022-09-18T03:52:32.248Z,9.80
2022-09-18T03:55:07.451Z,9.70
2022-09-18T03:57:53.345Z,9.70
2022-09-18T04:00:55.623Z,9.70
2022-09-18T04:03:32.621Z,9.70
2022-09-18T04:06:28.416Z,9.70
2022-09-18T04:09:34.483Z,9.70
2022-09-18T04:12:01.417Z,9.70
2022-09-18T04:14:30.207Z,9.60
2022-09-18T04:16:58.725Z,9.60
2022-09-18T04:19:25.531Z,9.60
2022-09-18T04:21:52.484Z,9.50
2022-09-18T04:24:21.377Z,9.50
2022-09-18T04:26:48.220Z,9.50
2022-09-18T04:29:15.033Z,9.50
2022-09-18T04:31:45.567Z,9.50
2022-09-18T04:34:16.219Z,9.50
2022-09-18T04:36:43.281Z,9.40
2022-09-18T04:39:11.346Z,9.30
2022-09-18T04:41:40.428Z,9.30
2022-09-18T04:44:07.700Z,9.20
2022-09-18T04:46:34.980Z,9.20
2022-09-18T04:49:02.442Z,9.20
2022-09-18T04:51:32.863Z,9.10
2022-09-18T04:53:59.843Z,9.10
2022-09-18T04:56:27.723Z,9.10
2022-09-18T04:58:54.732Z,9.10
2022-09-18T05:01:22.369Z,9.10
2022-09-18T05:03:49.355Z,9.10
2022-09-18T05:06:27.099Z,9.10
2022-09-18T05:08:53.891Z,9.10
2022-09-18T05:11:22.492Z,9.10
2022-09-18T05:13:50.153Z,9.10
2022-09-18T05:16:16.996Z,9.00
2022-09-18T05:18:54.300Z,9.00
2022-09-18T05:21:21.264Z,9.00
2022-09-18T05:23:50.439Z,9.00
2022-09-18T05:26:17.908Z,9.00
2022-09-18T05:28:44.799Z,9.00
2022-09-18T05:31:11.832Z,9.10
2022-09-18T05:33:44.041Z,9.00
2022-09-18T05:36:11.416Z,9.00
2022-09-18T05:38:38.582Z,9.00
2022-09-18T05:41:08.987Z,9.00
2022-09-18T05:43:35.873Z,9.00
2022-09-18T05:46:07.156Z,9.00
2022-09-18T05:48:45.036Z,9.00
2022-09-18T05:51:11.966Z,9.00
2022-09-18T05:53:38.808Z,8.90
2022-09-18T05:56:17.657Z,9.00
2022-09-18T05:58:45.364Z,9.00
2022-09-18T06:01:14.304Z,8.90
2022-09-18T06:04:04.342Z,8.90
2022-09-18T06:06:41.962Z,9.00
2022-09-18T06:09:09.799Z,9.00
2022-09-18T06:11:37.299Z,9.00
2022-09-18T06:14:06.093Z,9.10
2022-09-18T06:16:35.641Z,9.10
2022-09-18T06:19:07.250Z,9.20
2022-09-18T06:21:33.985Z,9.20
2022-09-18T06:24:00.970Z,9.30
2022-09-18T06:26:48.879Z,9.30
2022-09-18T06:29:16.009Z,9.30
2022-09-18T06:31:50.681Z,9.40
2022-09-18T06:34:22.727Z,9.40
2022-09-18T06:36:51.141Z,9.40
2022-09-18T06:39:50.020Z,9.50
2022-09-18T06:42:45.846Z,9.60
2022-09-18T06:45:30.898Z,9.60
2022-09-18T06:48:02.748Z,9.60
2022-09-18T06:50:30.870Z,9.70
2022-09-18T06:53:11.475Z,9.80
2022-09-18T06:55:48.946Z,9.90
2022-09-18T06:58:19.845Z,10.00
2022-09-18T07:00:50.195Z,10.00
2022-09-18T07:03:23.197Z,10.10
2022-09-18T07:06:05.112Z,10.20
2022-09-18T07:08:44.124Z,10.20
2022-09-18T07:11:18.237Z,10.20
2022-09-18T07:13:46.442Z,10.30
2022-09-18T07:16:13.756Z,10.30
2022-09-18T07:18:42.216Z,10.40
2022-09-18T07:21:11.256Z,10.40
2022-09-18T07:23:40.004Z,10.40
2022-09-18T07:26:06.870Z,10.50
2022-09-18T07:28:34.618Z,10.50
2022-09-18T07:31:21.051Z,10.60
2022-09-18T07:33:53.209Z,10.60
2022-09-18T07:36:22.572Z,10.70
2022-09-18T07:38:53.633Z,10.80
2022-09-18T07:41:23.841Z,11.00
2022-09-18T07:43:51.482Z,11.00
2022-09-18T07:46:21.607Z,11.00
2022-09-18T07:48:51.919Z,11.20
2022-09-18T07:51:26.605Z,11.40
2022-09-18T07:53:55.376Z,11.60
2022-09-18T07:56:35.047Z,11.70
2022-09-18T07:59:02.357Z,11.60
2022-09-18T08:01:34.650Z,11.60
2022-09-18T08:04:03.933Z,11.50
2022-09-18T08:06:36.521Z,11.30
2022-09-18T08:09:11.069Z,11.30
2022-09-18T08:11:58.463Z,11.50
2022-09-18T08:14:41.114Z,11.50
2022-09-18T08:17:16.978Z,11.60
2022-09-18T08:20:09.190Z,11.80
2022-09-18T08:22:54.023Z,11.90
2022-09-18T08:25:27.383Z,12.10
2022-09-18T08:27:54.736Z,12.20
2022-09-18T08:30:33.367Z,12.30
2022-09-18T08:33:06.964Z,12.20
2022-09-18T08:35:34.905Z,12.20
2022-09-18T08:38:14.651Z,12.00
2022-09-18T08:41:29.962Z,12.10
2022-09-18T08:44:04.980Z,12.30
2022-09-18T08:46:38.169Z,12.40
2022-09-18T08:49:36.794Z,12.40
2022-09-18T08:52:23.311Z,12.60
2022-09-18T08:55:16.736Z,12.90
2022-09-18T08:58:44.901Z,13.10
2022-09-18T09:01:17.768Z,12.90
2022-09-18T09:04:28.428Z,13.10
2022-09-18T09:06:58.270Z,13.30
2022-09-18T09:09:54.756Z,13.20
2022-09-18T09:12:54.115Z,12.90
2022-09-18T09:15:39.790Z,12.70
2022-09-18T09:18:17.019Z,12.70
2022-09-18T09:20:58.546Z,12.70
2022-09-18T09:24:05.976Z,12.60
2022-09-18T09:26:55.236Z,12.60
2022-09-18T09:30:04.163Z,12.70
2022-09-18T09:32:49.634Z,12.60
2022-09-18T09:35:45.689Z,12.40
2022-09-18T09:38:29.419Z,12.20
2022-09-18T09:40:59.709Z,12.10
2022-09-18T09:43:29.487Z,12.00
2022-09-18T09:46:09.449Z,11.90
2022-09-18T09:48:46.688Z,11.70
2022-09-18T09:51:36.193Z,11.60
2022-09-18T09:54:03.356Z,11.80
2022-09-18T09:56:42.838Z,12.10
2022-09-18T09:59:16.548Z,12.30
2022-09-18T10:02:09.595Z,12.40
2022-09-18T10:04:48.469Z,12.30
2022-09-18T10:07:27.196Z,12.30
2022-09-18T10:10:20.325Z,12.50
2022-09-18T10:13:01.852Z,12.70
2022-09-18T10:15:51.181Z,12.90
2022-09-18T10:18:26.016Z,13.00
2022-09-18T10:21:03.913Z,13.30
2022-09-18T10:23:38.767Z,13.50
2022-09-18T10:26:09.699Z,13.60
2022-09-18T10:28:36.665Z,13.80
2022-09-18T10:31:08.910Z,14.10
2022-09-18T10:33:41.248Z,14.00
2022-09-18T10:36:19.800Z,13.90
2022-09-18T10:38:47.409Z,14.00
2022-09-18T10:41:46.017Z,14.20
2022-09-18T10:44:28.241Z,14.30
2022-09-18T10:47:10.700Z,14.00
2022-09-18T10:50:11.174Z,13.80
2022-09-18T10:52:49.671Z,13.90
2022-09-18T10:55:26.439Z,14.20
2022-09-18T10:57:59.848Z,14.20
2022-09-18T11:00:37.102Z,14.10
2022-09-18T11:03:17.754Z,13.90
2022-09-18T11:06:03.220Z,13.60
2022-09-18T11:08:48.124Z,13.40
2022-09-18T11:11:31.342Z,13.10
2022-09-18T11:14:20.511Z,13.00
2022-09-18T11:16:59.120Z,13.00
2022-09-18T11:19:31.637Z,13.30
2022-09-18T11:22:26.203Z,13.60
2022-09-18T11:25:07.139Z,13.80
2022-09-18T11:27:57.620Z,13.80
2022-09-18T11:30:34.117Z,14.00
2022-09-18T11:33:24.746Z,14.10
2022-09-18T11:35:59.568Z,14.10
2022-09-18T11:38:27.210Z,14.10
2022-09-18T11:40:59.349Z,14.00
2022-09-18T11:43:42.134Z,14.00
2022-09-18T11:46:27.410Z,14.10
2022-09-18T11:49:04.683Z,14.20
2022-09-18T11:51:54.409Z,14.10
2022-09-18T11:54:49.017Z,13.90
2022-09-18T11:57:44.038Z,13.80
2022-09-18T12:00:20.751Z,13.40
2022-09-18T12:02:56.400Z,13.10
2022-09-18T12:05:51.408Z,13.30
2022-09-18T12:08:33.886Z,13.60
2022-09-18T12:11:27.680Z,14.00
2022-09-18T12:14:36.867Z,14.20
2022-09-18T12:17:20.051Z,14.40
2022-09-18T12:19:51.775Z,15.00
2022-09-18T12:22:29.680Z,15.70
2022-09-18T12:24:59.306Z,16.50
2022-09-18T12:28:12.995Z,17.00
2022-09-18T12:30:55.034Z,17.90
2022-09-18T12:33:36.858Z,18.30
2022-09-18T12:36:26.637Z,17.80
2022-09-18T12:39:27.482Z,18.00
2022-09-18T12:41:57.434Z,17.40
2022-09-18T12:44:48.430Z,16.10
2022-09-18T12:47:19.789Z,15.40
2022-09-18T12:50:14.278Z,14.90
2022-09-18T12:53:08.689Z,15.30
2022-09-18T12:55:52.805Z,16.70
2022-09-18T12:58:40.465Z,16.70
2022-09-18T13:01:26.973Z,16.30
2022-09-18T13:04:01.086Z,15.40
2022-09-18T13:06:45.676Z,15.10
2022-09-18T13:09:23.868Z,14.80
2022-09-18T13:12:04.497Z,14.40
2022-09-18T13:14:39.624Z,13.80
2022-09-18T13:17:25.417Z,13.00
2022-09-18T13:20:07.066Z,11.90
2022-09-18T13:22:37.112Z,11.10
2022-09-18T13:25:20.071Z,10.60
2022-09-18T13:27:47.305Z,10.40
2022-09-18T13:30:22.275Z,10.20
2022-09-18T13:32:49.471Z,10.10
2022-09-18T13:35:23.411Z,10.00
2022-09-18T13:38:13.692Z,10.00
2022-09-18T13:41:02.287Z,9.90
2022-09-18T13:43:29.256Z,9.90
2022-09-18T13:45:57.936Z,9.90
2022-09-18T13:48:41.922Z,9.90
2022-09-18T13:51:37.519Z,10.00
2022-09-18T13:54:28.127Z,10.00
2022-09-18T13:57:05.103Z,10.00
2022-09-18T13:59:49.562Z,10.10
2022-09-18T14:02:31.474Z,10.20
2022-09-18T14:05:04.296Z,10.30
2022-09-18T14:07:31.148Z,10.30
2022-09-18T14:10:03.849Z,10.30
2022-09-18T14:12:34.472Z,10.30
2022-09-18T14:15:31.796Z,10.30
2022-09-18T14:18:22.308Z,10.20
2022-09-18T14:20:55.969Z,10.10
2022-09-18T14:23:40.656Z,10.20
2022-09-18T14:26:29.249Z,10.30
2022-09-18T14:29:12.098Z,10.40
2022-09-18T14:31:45.202Z,10.30
2022-09-18T14:34:41.655Z,10.30
2022-09-18T14:37:31.042Z,10.30
2022-09-18T14:39:58.693Z,10.40
2022-09-18T14:42:33.328Z,10.40
2022-09-18T14:45:15.388Z,10.40
2022-09-18T14:47:47.745Z,10.50
2022-09-18T14:50:41.143Z,10.30
2022-09-18T14:53:25.951Z,10.40
2022-09-18T14:56:03.950Z,12.10
2022-09-18T14:58:39.251Z,13.60
2022-09-18T15:01:11.476Z,14.70
2022-09-18T15:03:41.876Z,15.90
2022-09-18T15:06:31.711Z,16.70
2022-09-18T15:08:58.762Z,17.80
2022-09-18T15:11:34.665Z,17.80
2022-09-18T15:14:22.293Z,18.20
2022-09-18T15:16:57.825Z,18.80
2022-09-18T15:19:24.792Z,18.20
2022-09-18T15:21:52.107Z,17.90
2022-09-18T15:24:19.247Z,18.50
2022-09-18T15:26:55.995Z,18.00
2022-09-18T15:29:25.954Z,17.50
2022-09-18T15:31:54.072Z,16.20
2022-09-18T15:34:25.648Z,15.30
2022-09-18T15:37:04.195Z,14.50
2022-09-18T15:39:36.043Z,14.10
2022-09-18T15:42:36.117Z,13.40
2022-09-18T15:45:05.768Z,13.10
2022-09-18T15:47:36.308Z,12.70
2022-09-18T15:50:32.708Z,12.80
2022-09-18T15:53:14.540Z,12.60
2022-09-18T15:56:03.424Z,12.50
2022-09-18T15:58:44.154Z,12.40
2022-09-18T16:01:20.700Z,12.20
2022-09-18T16:03:47.979Z,12.10
2022-09-18T16:06:25.835Z,12.00
2022-09-18T16:08:55.806Z,11.90
2022-09-18T16:11:45.264Z,11.90
2022-09-18T16:14:38.588Z,11.80
2022-09-18T16:17:34.837Z,11.70
2022-09-18T16:20:22.091Z,11.30
2022-09-18T16:22:50.632Z,11.20
2022-09-18T16:25:21.638Z,11.10
2022-09-18T16:27:52.489Z,11.00
2022-09-18T16:30:19.221Z,11.00
2022-09-18T16:32:45.963Z,10.90
2022-09-18T16:35:14.851Z,10.80
2022-09-18T16:37:42.814Z,10.80
2022-09-18T16:40:27.666Z,10.80
2022-09-18T16:42:58.193Z,10.70
2022-09-18T16:45:26.995Z,10.70
2022-09-18T16:47:58.815Z,10.70
2022-09-18T16:50:27.556Z,10.60
2022-09-18T16:52:57.550Z,10.60
2022-09-18T16:55:26.652Z,10.50
2022-09-18T16:57:55.088Z,10.40
2022-09-18T17:00:21.916Z,10.30
2022-09-18T17:02:50.488Z,10.20
2022-09-18T17:05:20.354Z,10.10
2022-09-18T17:07:47.155Z,10.10
2022-09-18T17:10:13.929Z,10.00
2022-09-18T17:12:41.556Z,10.00
2022-09-18T17:15:09.312Z,9.90
2022-09-18T17:17:36.591Z,9.90
2022-09-18T17:20:04.790Z,9.80
2022-09-18T17:22:31.948Z,9.70
2022-09-18T17:24:59.089Z,9.70
2022-09-18T17:27:26.219Z,9.60
2022-09-18T17:29:53.015Z,9.60
2022-09-18T17:32:19.796Z,9.50
2022-09-18T17:34:46.617Z,9.50
2022-09-18T17:37:13.477Z,9.40
2022-09-18T17:39:40.264Z,9.40
2022-09-18T17:42:07.550Z,9.40
2022-09-18T17:44:35.401Z,9.40
2022-09-18T17:47:02.444Z,9.40
2022-09-18T17:49:32.579Z,9.40
2022-09-18T17:52:00.118Z,9.40
2022-09-18T17:54:27.748Z,9.40
2022-09-18T17:56:55.815Z,9.50
2022-09-18T17:59:22.893Z,9.40
2022-09-18T18:01:49.821Z,9.50
2022-09-18T18:04:16.759Z,9.50
2022-09-18T18:06:47.368Z,9.50
2022-09-18T18:09:15.187Z,9.50
2022-09-18T18:11:46.167Z,9.60
2022-09-18T18:14:13.492Z,9.50
2022-09-18T18:16:43.596Z,9.50
2022-09-18T18:19:12.753Z,9.60
2022-09-18T18:21:41.531Z,9.60
2022-09-18T18:24:12.110Z,9.60
2022-09-18T18:26:42.568Z,9.60
2022-09-18T18:29:11.744Z,9.60
2022-09-18T18:31:40.529Z,9.60
2022-09-18T18:34:10.676Z,9.60
2022-09-18T18:36:39.539Z,9.60
2022-09-18T18:39:09.857Z,9.50
2022-09-18T18:41:37.168Z,9.50
2022-09-18T18:44:07.476Z,9.50
2022-09-18T18:46:36.241Z,9.50
2022-09-18T18:49:10.359Z,9.50
2022-09-18T18:51:42.847Z,9.40
2022-09-18T18:54:09.828Z,9.40
2022-09-18T18:56:38.701Z,9.30
2022-09-18T18:59:09.022Z,9.30
2022-09-18T19:01:36.222Z,9.20
2022-09-18T19:04:08.188Z,9.20
2022-09-18T19:06:38.743Z,9.20
2022-09-18T19:09:19.798Z,9.20
2022-09-18T19:11:48.968Z,9.20
2022-09-18T19:14:25.936Z,9.20
2022-09-18T19:16:54.285Z,9.20
2022-09-18T19:19:21.973Z,9.10
2022-09-18T19:21:48.823Z,9.10
2022-09-18T19:24:18.488Z,9.10
2022-09-18T19:26:46.533Z,9.10
2022-09-18T19:29:15.790Z,9.10
2022-09-18T19:31:44.010Z,9.10
2022-09-18T19:34:15.242Z,9.00
2022-09-18T19:36:47.269Z,9.00
2022-09-18T19:39:14.607Z,8.90
2022-09-18T19:41:44.389Z,8.80
2022-09-18T19:44:26.796Z,8.80
2022-09-18T19:46:55.759Z,8.70
2022-09-18T19:49:30.950Z,8.60
2022-09-18T19:51:58.198Z,8.60
2022-09-18T19:54:25.042Z,8.60
2022-09-18T19:56:52.119Z,8.60
2022-09-18T19:59:19.014Z,8.60
2022-09-18T20:01:46.212Z,8.60
2022-09-18T20:04:13.165Z,8.60
2022-09-18T20:06:42.278Z,8.50
2022-09-18T20:09:10.092Z,8.50
2022-09-18T20:11:37.280Z,8.50
2022-09-18T20:14:04.286Z,8.50
2022-09-18T20:16:31.498Z,8.50
2022-09-18T20:18:58.410Z,8.50
2022-09-18T20:21:25.222Z,8.50
2022-09-18T20:23:59.294Z,8.50
2022-09-18T20:26:26.270Z,8.40
2022-09-18T20:28:53.150Z,8.40
2022-09-18T20:31:20.899Z,8.30
2022-09-18T20:33:47.836Z,8.30
2022-09-18T20:36:14.724Z,8.30
2022-09-18T20:38:42.257Z,8.30
2022-09-18T20:41:12.394Z,8.40
2022-09-18T20:43:41.623Z,8.30
2022-09-18T20:46:14.186Z,8.30
2022-09-18T20:48:42.934Z,8.40
2022-09-18T20:51:11.911Z,8.30
2022-09-18T20:53:40.719Z,8.30
2022-09-18T20:56:11.309Z,8.30
2022-09-18T20:58:42.243Z,8.30
2022-09-18T21:01:12.240Z,8.30
2022-09-18T21:03:41.940Z,8.30
2022-09-18T21:06:23.327Z,8.30
2022-09-18T21:08:55.269Z,8.20
2022-09-18T21:11:23.491Z,8.20
2022-09-18T21:13:54.797Z,8.20
2022-09-18T21:16:23.208Z,8.30
2022-09-18T21:18:53.396Z,8.30
2022-09-18T21:21:20.435Z,8.30
2022-09-18T21:23:53.606Z,8.30
2022-09-18T21:26:25.693Z,8.30
2022-09-18T21:28:54.626Z,8.40
2022-09-18T21:31:24.906Z,8.40
2022-09-18T21:33:55.016Z,8.40
2022-09-18T21:36:23.602Z,8.40
2022-09-18T21:38:52.175Z,8.50
2022-09-18T21:41:20.665Z,8.50
2022-09-18T21:43:48.273Z,8.50
2022-09-18T21:46:19.142Z,8.50
2022-09-18T21:48:47.486Z,8.50
2022-09-18T21:51:15.437Z,8.50
2022-09-18T21:53:42.810Z,8.50
2022-09-18T21:56:18.673Z,8.50
2022-09-18T21:58:50.235Z,8.50
2022-09-18T22:01:21.648Z,8.50
2022-09-18T22:03:53.460Z,8.50
2022-09-18T22:06:45.280Z,8.50
2022-09-18T22:09:16.411Z,8.50
2022-09-18T22:11:44.842Z,8.50
2022-09-18T22:14:18.400Z,8.60
2022-09-18T22:16:48.138Z,8.60
2022-09-18T22:19:16.988Z,8.60
2022-09-18T22:21:46.563Z,8.70
2022-09-18T22:24:18.778Z,8.70
2022-09-18T22:26:57.349Z,8.70
2022-09-18T22:29:32.456Z,8.70
2022-09-18T22:32:00.398Z,8.70
2022-09-18T22:34:30.039Z,8.70
2022-09-18T22:36:59.280Z,8.70
2022-09-18T22:39:26.333Z,8.70
2022-09-18T22:41:53.727Z,8.70
2022-09-18T22:44:21.950Z,8.80
2022-09-18T22:46:49.352Z,8.80
2022-09-18T22:49:17.703Z,8.80
2022-09-18T22:51:45.463Z,8.80
2022-09-18T22:54:13.008Z,8.80
2022-09-18T22:56:43.855Z,8.80
2022-09-18T22:59:13.006Z,8.80
2022-09-18T23:01:51.164Z,8.80
2022-09-18T23:04:19.914Z,8.80
2022-09-18T23:06:48.356Z,8.80
2022-09-18T23:09:16.909Z,8.80
2022-09-18T23:11:45.664Z,8.80
2022-09-18T23:14:15.873Z,8.90
2022-09-18T23:16:42.833Z,8.80
2022-09-18T23:19:15.475Z,8.80
2022-09-18T23:21:42.300Z,8.80
2022-09-18T23:24:10.599Z,8.80
2022-09-18T23:26:42.489Z,8.80
2022-09-18T23:29:12.045Z,8.80
2022-09-18T23:31:42.485Z,8.80
2022-09-18T23:34:19.064Z,8.70
2022-09-18T23:36:47.927Z,8.60
2022-09-18T23:39:24.287Z,8.60
2022-09-18T23:41:51.872Z,8.60
2022-09-18T23:44:21.237Z,8.50
2022-09-18T23:46:48.340Z,8.50
2022-09-18T23:49:16.213Z,8.50
2022-09-18T23:51:48.201Z,8.60
2022-09-18T23:54:24.288Z,8.60
2022-09-18T23:56:52.004Z,8.60
2022-09-18T23:59:22.876Z,8.60
